| Date | Time | Temp. (oF) | Dew Point (oF) | Rel. Hum. (%) | Press. (in.) | Wind Dir. | Wind Speed (mph) | Hourly Rainfall (in.) |
|
|---|---|---|---|---|---|---|---|---|---|
| 1 | 07/30 | 00:00 | 73 | 68 | 86 | 29.85 | S | 0 | 0.00 |
| 2 | 07/29 | 23:00 | 75 | 69 | 82 | 29.84 | S | 0 | 0.00 |
| 3 | 07/29 | 22:00 | 76 | 68 | 79 | 29.82 | SSE | 0 | 0.00 |
| 4 | 07/29 | 21:00 | 79 | 69 | 73 | 29.81 | SSE | 0 | 0.00 |
| 5 | 07/29 | 20:00 | 82 | 68 | 64 | 29.79 | SE | 5 | 0.00 |
| 6 | 07/29 | 19:00 | 84 | 66 | 56 | 29.77 | SE | 0 | 0.00 |
| 7 | 07/29 | 18:00 | 87 | 66 | 51 | 29.77 | SSE | 4 | 0.00 |
| 8 | 07/29 | 17:00 | 89 | 66 | 48 | 29.77 | ESE | 0 | 0.00 |
| 9 | 07/29 | 16:00 | 89 | 70 | 54 | 29.77 | N | 5 | 0.00 |
| 10 | 07/29 | 15:00 | 88 | 70 | 57 | 29.78 | NNE | 4 | 0.00 |
| 11 | 07/29 | 14:00 | 86 | 70 | 60 | 29.78 | NE | 8 | 0.00 |
| 12 | 07/29 | 13:00 | 84 | 73 | 70 | 29.78 | NE | 5 | 0.00 |
| 13 | 07/29 | 12:00 | 80 | 70 | 73 | 29.79 | N | 5 | 0.00 |
| 14 | 07/29 | 11:00 | 77 | 69 | 79 | 29.80 | NNE | 3 | 0.00 |
| 15 | 07/29 | 10:00 | 76 | 71 | 87 | 29.79 | ENE | 4 | 0.00 |
| 16 | 07/29 | 09:00 | 73 | 72 | 97 | 29.79 | NNE | 4 | 0.00 |
| 17 | 07/29 | 08:00 | 70 | 69 | 100 | 29.80 | SW | 0 | 0.00 |
| 18 | 07/29 | 07:00 | 68 | 68 | 100 | 29.79 | SW | 0 | 0.00 |
| 19 | 07/29 | 06:00 | 68 | 68 | 100 | 29.76 | SW | 0 | 0.00 |
| 20 | 07/29 | 05:00 | 68 | 67 | 99 | 29.74 | NE | 1 | 0.03 |
| 21 | 07/29 | 04:00 | 68 | 67 | 98 | 29.74 | NNE | 5 | 0.45 |
| 22 | 07/29 | 03:00 | 71 | 69 | 96 | 29.77 | NE | 6 | 0.08 |
| 23 | 07/29 | 02:00 | 72 | 71 | 98 | 29.78 | NE | 1 | 0.00 |
| 24 | 07/29 | 01:00 | 72 | 71 | 98 | 29.80 | SSW | 2 | 0.00 |